Time;durP1;ratioP1;P1;durP2;ratioP2;P2;SDS_P1;SDS_P2;PMS_P1;PMS_P2;Temp;Humidity;BMP_temperature;BMP_pressure;BME280_temperature;BME280_humidity;BME280_pressure;Samples;Min_cycle;Max_cycle;Signal;HPM_P1;HPM_P2
2024/03/18 00:00:35;;;;;;;6.47;1.13;;;;;;;-146.25;77.97;52485.81;2072660;28;20035;-64
2024/03/18 00:01:36;;;;;;;5.18;1.42;;;;;;;-146.25;78.14;52497.97;2073109;28;20067;-65
2024/03/18 00:02:37;;;;;;;8.18;1.17;;;;;;;-146.25;78.28;52467.56;2072481;28;20067;-64
2024/03/18 00:03:37;;;;;;;9.07;1.55;;;;;;;-146.25;78.42;52497.97;2072445;28;20466;-64
2024/03/18 00:04:38;;;;;;;7.82;1.27;;;;;;;-146.25;78.55;52522.28;2071896;28;20058;-65
2024/03/18 00:05:39;;;;;;;6.75;1.10;;;;;;;-146.25;78.53;52485.81;2071837;28;20042;-63
2024/03/18 00:06:40;;;;;;;7.10;1.10;;;;;;;-146.25;78.48;52465.53;2072214;28;20066;-64
2024/03/18 00:07:41;;;;;;;6.18;1.20;;;;;;;-146.25;78.22;52487.81;2064413;28;20513;-64
2024/03/18 00:08:42;;;;;;;4.18;1.00;;;;;;;-146.25;78.32;52510.13;2064224;28;20050;-64
2024/03/18 00:09:43;;;;;;;6.65;1.23;;;;;;;-146.25;78.35;52467.56;2072178;28;20050;-64
2024/03/18 00:10:44;;;;;;;6.35;1.40;;;;;;;-146.25;78.49;52459.44;2072090;28;20042;-65
2024/03/18 00:11:45;;;;;;;5.63;1.17;;;;;;;-146.25;78.27;52506.06;2072388;28;20038;-63
2024/03/18 00:12:46;;;;;;;5.88;1.27;;;;;;;-146.25;78.72;52459.44;2072367;28;20047;-64
2024/03/18 00:13:46;;;;;;;6.97;0.95;;;;;;;-146.25;78.74;52465.53;2072196;28;20046;-64
2024/03/18 00:14:48;;;;;;;6.57;1.10;;;;;;;-146.25;78.22;52495.94;2072094;28;20413;-65
2024/03/18 00:15:49;;;;;;;7.55;1.20;;;;;;;-146.25;78.22;52489.84;2071861;28;20046;-64
2024/03/18 00:16:50;;;;;;;6.60;1.77;;;;;;;-146.25;78.68;52467.56;2072332;28;20595;-64
2024/03/18 00:17:51;;;;;;;9.68;1.73;;;;;;;-146.25;78.03;52451.31;2081046;28;20066;-64
2024/03/18 00:18:54;;;;;;;5.35;1.00;;;;;;;-146.25;78.16;52506.06;2088673;28;20041;-64
2024/03/18 00:19:55;;;;;;;7.03;1.58;;;;;;;-146.25;78.14;52479.72;2080451;28;20939;-64
2024/03/18 00:20:58;;;;;;;6.40;1.40;;;;;;;-146.25;78.11;52522.28;2072316;28;20282;-64
2024/03/18 00:21:59;;;;;;;7.82;1.35;;;;;;;-146.25;78.29;52451.31;2064006;28;20043;-64
2024/03/18 00:22:59;;;;;;;6.50;1.38;;;;;;;-146.25;78.49;52465.53;2064145;28;20050;-65
2024/03/18 00:24:00;;;;;;;5.93;1.20;;;;;;;-146.25;78.79;52471.59;2072352;28;20050;-65
2024/03/18 00:25:02;;;;;;;6.55;1.20;;;;;;;-146.25;79.20;52475.66;2063920;28;20054;-65
2024/03/18 00:26:03;;;;;;;6.15;1.35;;;;;;;-146.25;79.06;52487.81;2072098;28;20096;-64
2024/03/18 00:27:04;;;;;;;4.97;1.02;;;;;;;-146.25;79.31;52465.53;2071934;28;20846;-65
2024/03/18 00:28:10;;;;;;;8.00;1.55;;;;;;;-146.25;79.10;52506.06;2072384;28;20042;-64
2024/03/18 00:29:11;;;;;;;8.45;1.15;;;;;;;-146.25;79.08;52502.03;2073062;28;20038;-64
2024/03/18 00:30:12;;;;;;;5.13;1.30;;;;;;;-146.25;79.94;52437.13;2071851;28;20061;-64
2024/03/18 00:31:13;;;;;;;7.00;1.38;;;;;;;-146.25;80.18;52469.56;2071610;28;20073;-64
2024/03/18 00:32:15;;;;;;;5.68;0.93;;;;;;;-146.25;80.41;52500.00;2072054;28;20038;-64
2024/03/18 00:33:18;;;;;;;4.85;0.90;;;;;;;-146.25;80.88;52516.22;2072149;28;20050;-65
2024/03/18 00:34:19;;;;;;;5.97;0.90;;;;;;;-146.25;81.43;52487.81;2064095;28;20204;-64
2024/03/18 00:35:19;;;;;;;8.30;1.23;;;;;;;-146.25;81.40;52475.66;2071840;28;20115;-64
2024/03/18 00:36:23;;;;;;;5.90;1.17;;;;;;;-146.25;81.68;52477.69;2072092;28;20046;-64
2024/03/18 00:37:25;;;;;;;6.20;1.13;;;;;;;-146.25;81.96;52508.09;2071745;28;20724;-64
2024/03/18 00:38:26;;;;;;;9.70;1.70;;;;;;;-146.25;81.56;52455.38;2064253;28;20150;-63
2024/03/18 00:39:27;;;;;;;7.68;1.30;;;;;;;-146.25;81.70;52491.88;2064609;28;20552;-64
2024/03/18 00:40:28;;;;;;;6.32;0.90;;;;;;;-146.25;81.18;52481.75;2080297;28;20170;-64
2024/03/18 00:41:48;;;;;;;5.55;1.38;;;;;;;-146.25;81.11;52455.38;2080307;28;20171;-66
2024/03/18 00:42:48;;;;;;;4.63;1.08;;;;;;;-146.25;81.19;52461.47;2072091;28;20136;-63
2024/03/18 00:43:49;;;;;;;6.22;1.20;;;;;;;-146.25;82.90;52469.56;2063998;28;20043;-63
2024/03/18 00:44:51;;;;;;;5.95;1.02;;;;;;;-146.25;83.98;52487.81;2072060;28;20121;-63
2024/03/18 00:45:52;;;;;;;8.30;1.17;;;;;;;-146.25;84.77;52495.94;2072138;28;20042;-63
2024/03/18 00:46:53;;;;;;;8.25;1.10;;;;;;;-146.25;84.38;52469.56;2072022;28;20473;-63
2024/03/18 00:47:54;;;;;;;7.55;1.55;;;;;;;-146.25;85.96;52465.53;2071958;28;20050;-63
2024/03/18 00:48:55;;;;;;;6.32;1.50;;;;;;;-146.25;87.21;52479.72;2071741;28;20043;-64
2024/03/18 00:49:56;;;;;;;8.27;1.20;;;;;;;-146.25;87.88;52489.84;2072305;28;20042;-63
2024/03/18 00:50:57;;;;;;;7.53;1.20;;;;;;;-146.25;87.80;52493.91;2071938;28;20091;-63
2024/03/18 00:52:00;;;;;;;6.10;1.27;;;;;;;-146.25;87.67;52497.97;2055486;28;20043;-64
2024/03/18 00:53:02;;;;;;;7.43;1.60;;;;;;;-146.25;88.99;52481.75;2056614;28;20812;-64
2024/03/18 00:54:04;;;;;;;8.25;1.23;;;;;;;-146.25;89.02;52457.41;2064452;28;20800;-63
2024/03/18 00:55:06;;;;;;;7.63;1.33;;;;;;;-146.25;89.69;52481.75;2072237;28;20034;-63
2024/03/18 00:56:10;;;;;;;8.13;1.33;;;;;;;-146.25;90.21;52485.81;2072326;28;20053;-65
2024/03/18 00:57:11;;;;;;;6.00;1.40;;;;;;;-146.25;89.64;52485.81;2064021;28;20192;-64
2024/03/18 00:58:15;;;;;;;5.97;1.25;;;;;;;-146.25;90.51;52491.88;2056281;28;20039;-63
2024/03/18 00:59:19;;;;;;;7.65;1.60;;;;;;;-146.25;89.57;52469.56;2064417;28;20039;-64
2024/03/18 01:00:19;;;;;;;7.88;1.25;;;;;;;-146.25;89.38;52475.66;2072036;28;20883;-64
2024/03/18 01:01:23;;;;;;;5.85;1.00;;;;;;;-146.25;89.77;52477.69;2064940;28;20935;-64
2024/03/18 01:02:24;;;;;;;7.55;1.60;;;;;;;-146.25;89.14;52489.84;2064369;28;20038;-64
2024/03/18 01:03:25;;;;;;;6.95;1.83;;;;;;;-146.25;89.64;52453.34;2080095;28;20660;-64
2024/03/18 01:04:26;;;;;;;7.93;1.55;;;;;;;-146.25;89.45;52463.50;2088525;28;20042;-64
2024/03/18 01:05:28;;;;;;;5.68;1.50;;;;;;;-146.25;89.89;52481.75;2080004;28;20145;-65
2024/03/18 01:06:31;;;;;;;6.53;1.42;;;;;;;-146.25;90.55;52453.34;2071942;28;20074;-64
2024/03/18 01:07:32;;;;;;;6.88;1.55;;;;;;;-146.25;90.72;52465.53;2071765;28;20077;-64
2024/03/18 01:08:33;;;;;;;6.47;1.60;;;;;;;-146.25;90.92;52485.81;2063735;28;20086;-64
2024/03/18 01:09:34;;;;;;;8.02;1.80;;;;;;;-146.25;90.67;52479.72;2063180;28;20054;-64
2024/03/18 01:10:35;;;;;;;4.75;1.25;;;;;;;-146.25;90.23;52465.53;2071605;28;20042;-65
2024/03/18 01:11:35;;;;;;;8.00;1.35;;;;;;;-146.25;90.72;52461.47;2063895;28;20050;-64
2024/03/18 01:12:36;;;;;;;7.72;1.40;;;;;;;-146.25;90.23;52467.56;2063792;28;20073;-64
2024/03/18 01:13:39;;;;;;;5.10;0.90;;;;;;;-146.25;90.95;52487.81;2080091;28;20065;-64
2024/03/18 01:14:39;;;;;;;6.95;1.27;;;;;;;-146.25;90.75;52485.81;2079681;28;21017;-64
2024/03/18 01:15:40;;;;;;;5.55;1.17;;;;;;;-146.25;91.13;52459.44;2072050;28;20042;-64
2024/03/18 01:16:41;;;;;;;5.57;1.40;;;;;;;-146.25;90.20;52467.56;2071980;28;20030;-64
2024/03/18 01:17:42;;;;;;;8.57;1.05;;;;;;;-146.25;90.31;52487.81;2071729;28;20536;-63
2024/03/18 01:18:43;;;;;;;8.32;1.23;;;;;;;-146.25;90.57;52457.41;2071856;28;20042;-64
2024/03/18 01:19:45;;;;;;;6.82;1.48;;;;;;;-146.25;90.39;52457.41;2071582;28;20927;-64
2024/03/18 01:20:45;;;;;;;6.82;1.48;;;;;;;-146.25;90.08;52520.28;2072156;28;20034;-65
2024/03/18 01:21:46;;;;;;;8.43;1.45;;;;;;;-146.25;90.18;52481.75;2071590;28;20054;-64
2024/03/18 01:22:47;;;;;;;8.75;1.40;;;;;;;-146.25;89.84;52489.84;2071940;28;20045;-64
2024/03/18 01:23:48;;;;;;;5.65;1.15;;;;;;;-146.25;90.36;52479.72;2072465;28;20051;-64
2024/03/18 01:24:49;;;;;;;6.20;1.00;;;;;;;-146.25;89.79;52483.78;2071589;28;20055;-64
2024/03/18 01:25:50;;;;;;;8.00;1.30;;;;;;;-146.25;90.25;52495.94;2071937;28;20045;-64
2024/03/18 01:26:50;;;;;;;8.07;1.55;;;;;;;-146.25;90.39;52500.00;2072049;28;20042;-64
2024/03/18 01:27:51;;;;;;;7.40;1.25;;;;;;;-146.25;90.20;52493.91;2071605;28;20531;-64
2024/03/18 01:28:52;;;;;;;5.53;1.40;;;;;;;-146.25;90.67;52497.97;2072028;28;20059;-64
2024/03/18 01:29:53;;;;;;;6.65;1.45;;;;;;;-146.25;90.54;52465.53;2071276;28;20053;-64
2024/03/18 01:30:54;;;;;;;6.97;1.10;;;;;;;-146.25;90.46;52516.22;2071635;28;20488;-64
2024/03/18 01:31:54;;;;;;;5.47;1.33;;;;;;;-146.25;91.00;52467.56;2071723;28;20042;-64
2024/03/18 01:32:55;;;;;;;5.88;1.30;;;;;;;-146.25;90.72;52497.97;2071725;28;20097;-64
2024/03/18 01:34:00;;;;;;;4.40;1.08;;;;;;;-146.25;90.87;52485.81;2071956;28;20228;-64
2024/03/18 01:35:01;;;;;;;5.15;1.38;;;;;;;-146.25;91.51;52493.91;2072161;28;20035;-64
2024/03/18 01:36:02;;;;;;;6.97;1.23;;;;;;;-146.25;92.45;52497.97;2071813;28;20039;-64
2024/03/18 01:37:03;;;;;;;7.65;1.83;;;;;;;-146.25;92.59;52497.97;2071572;28;20038;-64
2024/03/18 01:38:04;;;;;;;6.05;1.67;;;;;;;-146.25;92.96;52479.72;2071682;28;20046;-64
2024/03/18 01:39:05;;;;;;;4.70;1.20;;;;;;;-146.25;92.81;52449.31;2071960;28;20069;-64
2024/03/18 01:40:07;;;;;;;6.43;1.60;;;;;;;-146.25;93.31;52485.81;2071820;28;20141;-64
2024/03/18 01:41:08;;;;;;;6.97;1.40;;;;;;;-146.25;93.28;52500.00;2071841;28;20038;-64
2024/03/18 01:42:09;;;;;;;7.28;1.73;;;;;;;-146.25;92.92;52504.03;2071567;28;20520;-65
2024/03/18 01:43:10;;;;;;;8.55;1.55;;;;;;;-146.25;93.77;52477.69;2070650;28;20050;-65
2024/03/18 01:44:10;;;;;;;6.47;1.30;;;;;;;-146.25;92.82;52469.56;2071718;28;20039;-64
2024/03/18 01:45:21;;;;;;;7.22;1.40;;;;;;;-146.25;93.63;52465.53;2072057;28;20834;-64
2024/03/18 01:46:22;;;;;;;6.18;2.13;;;;;;;-146.25;94.09;52473.63;2065101;28;20043;-64
2024/03/18 01:47:24;;;;;;;6.85;1.52;;;;;;;-146.25;93.08;52471.59;2073138;28;20046;-64
2024/03/18 01:48:24;;;;;;;7.57;1.38;;;;;;;-146.25;93.64;52461.47;2071251;28;20050;-65
2024/03/18 01:49:25;;;;;;;6.30;1.67;;;;;;;-146.25;93.92;52475.66;2063794;28;20038;-63
2024/03/18 01:50:28;;;;;;;6.15;1.17;;;;;;;-146.25;93.50;52493.91;2088203;28;20045;-64
2024/03/18 01:51:30;;;;;;;7.70;1.67;;;;;;;-146.25;94.05;52497.97;2079434;28;21518;-64
2024/03/18 01:52:31;;;;;;;7.65;1.33;;;;;;;-146.25;93.95;52495.94;2071552;28;20043;-65
2024/03/18 01:53:34;;;;;;;7.30;1.30;;;;;;;-146.25;94.15;52493.91;2063559;28;20043;-65
2024/03/18 01:54:37;;;;;;;6.68;1.20;;;;;;;-146.25;93.90;52493.91;2056154;28;20837;-64
2024/03/18 01:55:39;;;;;;;6.82;1.67;;;;;;;-146.25;94.00;52473.63;2064599;28;20039;-65
2024/03/18 01:56:40;;;;;;;6.25;1.65;;;;;;;-146.25;93.62;52518.25;2063789;28;20047;-65
2024/03/18 01:57:41;;;;;;;4.35;1.40;;;;;;;-146.25;93.59;52475.66;2063935;28;20493;-65
2024/03/18 01:58:44;;;;;;;5.25;1.25;;;;;;;-146.25;93.38;52459.44;2071684;28;20061;-65
2024/03/18 01:59:45;;;;;;;4.88;1.20;;;;;;;-146.25;93.36;52445.25;2071357;28;20034;-65
2024/03/18 02:00:46;;;;;;;5.97;1.10;;;;;;;-146.25;93.59;52481.75;2071922;28;20034;-64
2024/03/18 02:01:46;;;;;;;10.88;1.80;;;;;;;-146.25;93.90;52518.25;2071712;28;20041;-63
2024/03/18 02:02:47;;;;;;;5.78;1.50;;;;;;;-146.25;93.84;52461.47;2071559;28;20049;-63
2024/03/18 02:03:52;;;;;;;10.40;1.50;;;;;;;-146.25;94.44;52510.13;2079571;28;20046;-64
2024/03/18 02:04:54;;;;;;;6.38;1.55;;;;;;;-146.25;94.46;52471.59;2079952;28;20077;-64
2024/03/18 02:05:54;;;;;;;6.55;1.77;;;;;;;-146.25;94.70;52475.66;2071416;28;20042;-64
2024/03/18 02:06:56;;;;;;;10.02;1.65;;;;;;;-146.25;95.13;52489.84;2071602;28;20129;-64
2024/03/18 02:08:00;;;;;;;7.28;1.38;;;;;;;-146.25;95.09;52473.63;2063393;28;20801;-65
2024/03/18 02:09:01;;;;;;;6.30;1.85;;;;;;;-146.25;95.08;52465.53;2064113;28;20035;-66
2024/03/18 02:10:04;;;;;;;5.55;1.20;;;;;;;-146.25;95.02;52471.59;2063623;28;20039;-65
2024/03/18 02:11:05;;;;;;;6.55;1.42;;;;;;;-146.25;94.59;52483.78;2079920;28;20714;-65
2024/03/18 02:12:07;;;;;;;7.65;1.33;;;;;;;-146.25;95.55;52473.63;2079987;28;20042;-65
2024/03/18 02:13:08;;;;;;;7.70;1.42;;;;;;;-146.25;95.95;52463.50;2071742;28;20312;-65
2024/03/18 02:14:15;;;;;;;6.95;1.55;;;;;;;-146.25;95.88;52473.63;2071609;28;20511;-66
2024/03/18 02:15:17;;;;;;;8.80;1.83;;;;;;;-146.25;96.20;52451.31;2079751;28;20030;-64
2024/03/18 02:16:18;;;;;;;8.07;1.33;;;;;;;-146.25;96.57;52493.91;2071602;28;20046;-65
2024/03/18 02:17:19;;;;;;;8.95;1.38;;;;;;;-146.25;96.92;52479.72;2071570;28;20524;-65
2024/03/18 02:18:20;;;;;;;6.25;1.60;;;;;;;-146.25;96.08;52500.00;2062984;28;20039;-66
2024/03/18 02:19:20;;;;;;;10.05;1.75;;;;;;;-146.25;96.74;52461.47;2063267;28;20090;-65
2024/03/18 02:20:22;;;;;;;7.85;1.67;;;;;;;-146.25;96.21;52506.06;2071509;28;20043;-65
2024/03/18 02:21:23;;;;;;;8.10;1.52;;;;;;;-146.25;96.67;52497.97;2063399;28;20042;-65
2024/03/18 02:22:25;;;;;;;8.70;1.50;;;;;;;-146.25;95.97;52461.47;2063202;28;20585;-65
2024/03/18 02:23:28;;;;;;;6.80;1.40;;;;;;;-146.25;96.78;52483.78;2071698;28;20109;-65
2024/03/18 02:24:29;;;;;;;6.03;1.60;;;;;;;-146.25;96.44;52491.88;2071226;28;20946;-66
2024/03/18 02:25:33;;;;;;;9.40;1.83;;;;;;;-146.25;95.76;52495.94;2079392;28;20050;-63
2024/03/18 02:26:34;;;;;;;6.10;1.40;;;;;;;-146.25;96.44;52467.56;2079211;28;20038;-64
2024/03/18 02:27:36;;;;;;;10.20;1.73;;;;;;;-146.25;95.97;52475.66;2071288;28;20042;-65
2024/03/18 02:28:42;;;;;;;8.40;1.63;;;;;;;-146.25;96.53;52459.44;2071562;28;20812;-65
2024/03/18 02:29:43;;;;;;;6.95;1.63;;;;;;;-146.25;96.77;52473.63;2072585;28;20273;-64
2024/03/18 02:30:44;;;;;;;6.78;1.58;;;;;;;-146.25;96.07;52477.69;2071487;28;20868;-64
2024/03/18 02:31:45;;;;;;;6.93;1.20;;;;;;;-146.25;96.39;52502.03;2071178;28;20043;-64
2024/03/18 02:32:49;;;;;;;8.35;1.17;;;;;;;-146.25;96.60;52510.13;2055288;28;20493;-65
2024/03/18 02:33:50;;;;;;;7.10;1.58;;;;;;;-146.25;96.01;52504.03;2056200;28;20047;-65
2024/03/18 02:34:51;;;;;;;10.10;1.98;;;;;;;-146.25;96.84;52451.31;2071582;28;20513;-64
2024/03/18 02:35:52;;;;;;;7.70;1.60;;;;;;;-146.25;96.06;52485.81;2071366;28;20050;-65
2024/03/18 02:36:52;;;;;;;8.05;1.50;;;;;;;-146.25;96.13;52455.38;2071144;28;20166;-65
2024/03/18 02:37:53;;;;;;;7.53;1.20;;;;;;;-146.25;96.51;52485.81;2071466;28;20038;-65
2024/03/18 02:38:56;;;;;;;6.43;1.40;;;;;;;-146.25;96.46;52497.97;2071549;28;20117;-65
2024/03/18 02:39:57;;;;;;;8.48;1.63;;;;;;;-146.25;96.00;52467.56;2071783;28;20075;-64
2024/03/18 02:40:57;;;;;;;4.80;1.45;;;;;;;-146.25;95.89;52485.81;2063106;28;20504;-65
2024/03/18 02:41:58;;;;;;;7.55;1.45;;;;;;;-146.25;96.57;52451.31;2063459;28;20050;-65
2024/03/18 02:42:59;;;;;;;7.50;1.80;;;;;;;-146.25;95.48;52453.34;2071428;28;20130;-65
2024/03/18 02:44:00;;;;;;;7.47;2.10;;;;;;;-146.25;96.33;52485.81;2071174;28;20093;-64
2024/03/18 02:45:10;;;;;;;5.78;1.40;;;;;;;-146.25;95.84;52502.03;2071090;28;20931;-65
2024/03/18 02:46:11;;;;;;;8.38;1.65;;;;;;;-146.25;95.85;52471.59;2081107;28;20042;-64
2024/03/18 02:47:12;;;;;;;5.75;1.20;;;;;;;-146.25;96.00;52514.19;2079715;28;20038;-65
2024/03/18 02:48:14;;;;;;;8.60;1.83;;;;;;;-146.25;95.49;52461.47;2071291;28;20158;-65
2024/03/18 02:49:15;;;;;;;8.30;1.80;;;;;;;-146.25;95.58;52493.91;2071292;28;20042;-65
2024/03/18 02:50:18;;;;;;;6.55;1.60;;;;;;;-146.25;94.84;52518.25;2071360;28;20122;-64
2024/03/18 02:51:19;;;;;;;7.50;1.40;;;;;;;-146.25;94.90;52485.81;2063942;28;20043;-64
2024/03/18 02:52:20;;;;;;;8.93;1.85;;;;;;;-146.25;95.37;52467.56;2063309;28;20126;-64
2024/03/18 02:53:24;;;;;;;9.27;1.48;;;;;;;-146.25;94.88;52502.03;2071565;28;20118;-65
2024/03/18 02:54:24;;;;;;;9.02;2.00;;;;;;;-146.25;95.13;52518.25;2072039;28;20031;-65
2024/03/18 02:55:25;;;;;;;7.90;1.60;;;;;;;-146.25;95.55;52487.81;2072212;28;20058;-65
2024/03/18 02:56:26;;;;;;;10.70;2.38;;;;;;;-146.25;95.12;52489.84;2072927;28;20039;-66
2024/03/18 02:57:39;;;;;;;8.40;1.83;;;;;;;-146.25;95.02;52493.91;2072853;28;20164;-64
2024/03/18 02:58:40;;;;;;;7.07;1.58;;;;;;;-146.25;95.13;52479.72;2066180;28;20050;-64
2024/03/18 02:59:41;;;;;;;4.95;1.20;;;;;;;-146.25;94.70;52497.97;2064483;28;20054;-65
2024/03/18 03:00:44;;;;;;;8.38;1.50;;;;;;;-146.25;95.01;52502.03;2072068;28;20053;-66
2024/03/18 03:01:49;;;;;;;9.40;2.03;;;;;;;-146.25;94.67;52485.81;2073171;28;20035;-65
2024/03/18 03:02:52;;;;;;;8.80;1.38;;;;;;;-146.25;94.17;52508.09;2072886;28;20050;-64
2024/03/18 03:03:54;;;;;;;7.70;1.55;;;;;;;-146.25;94.64;52497.97;2080945;28;20034;-65
2024/03/18 03:04:55;;;;;;;10.07;1.75;;;;;;;-146.25;94.58;52453.34;2072182;28;20035;-64
2024/03/18 03:05:56;;;;;;;6.03;1.52;;;;;;;-146.25;94.79;52510.13;2064664;28;20405;-65
2024/03/18 03:06:57;;;;;;;5.70;1.38;;;;;;;-146.25;94.73;52479.72;2080793;28;20038;-65
2024/03/18 03:07:57;;;;;;;5.72;1.33;;;;;;;-146.25;94.79;52465.53;2080725;28;20440;-65
2024/03/18 03:08:58;;;;;;;7.38;1.80;;;;;;;-146.25;94.00;52489.84;2064443;28;20046;-65
2024/03/18 03:10:00;;;;;;;7.47;1.88;;;;;;;-146.25;94.57;52471.59;2072409;28;20516;-64
2024/03/18 03:11:06;;;;;;;7.85;1.42;;;;;;;-146.25;94.16;52475.66;2072913;28;20039;-65
2024/03/18 03:12:08;;;;;;;8.18;1.88;;;;;;;-146.25;93.95;52481.75;2073422;28;20039;-64
2024/03/18 03:13:09;;;;;;;7.07;1.42;;;;;;;-146.25;93.72;52520.28;2072604;28;20041;-64
2024/03/18 03:14:10;;;;;;;9.20;2.13;;;;;;;-146.25;93.26;52481.75;2072239;28;20046;-64
2024/03/18 03:15:11;;;;;;;5.18;1.67;;;;;;;-146.25;93.82;52485.81;2080571;28;20041;-64
2024/03/18 03:16:13;;;;;;;7.60;1.60;;;;;;;-146.25;94.16;52485.81;2081459;28;20504;-63
2024/03/18 03:17:14;;;;;;;9.90;2.13;;;;;;;-146.25;93.87;52453.34;2064526;28;20031;-64
2024/03/18 03:18:14;;;;;;;6.90;1.60;;;;;;;-146.25;93.98;52516.22;2064513;28;20051;-64
2024/03/18 03:19:15;;;;;;;9.35;1.70;;;;;;;-146.25;93.76;52477.69;2072448;28;20042;-64
2024/03/18 03:20:20;;;;;;;9.65;2.08;;;;;;;-146.25;94.49;52467.56;2072786;28;20113;-64
2024/03/18 03:21:22;;;;;;;12.05;2.55;;;;;;;-146.25;94.49;52479.72;2073129;28;20907;-63
2024/03/18 03:22:24;;;;;;;9.18;1.45;;;;;;;-146.25;94.37;52500.00;2072382;28;20526;-64
2024/03/18 03:23:25;;;;;;;9.82;2.20;;;;;;;-146.25;94.03;52493.91;2072544;28;20038;-63
2024/03/18 03:24:26;;;;;;;8.60;1.52;;;;;;;-146.25;94.74;52489.84;2072797;28;20078;-63
2024/03/18 03:25:27;;;;;;;8.35;1.67;;;;;;;-146.25;94.35;52445.25;2072573;28;20055;-63
2024/03/18 03:26:29;;;;;;;8.05;1.85;;;;;;;-146.25;94.50;52485.81;2072463;28;20047;-64
2024/03/18 03:27:36;;;;;;;7.18;1.70;;;;;;;-146.25;94.56;52495.94;2080488;28;20038;-64
2024/03/18 03:28:39;;;;;;;11.40;2.63;;;;;;;-146.25;95.70;52520.28;2082035;28;20050;-65
2024/03/18 03:29:40;;;;;;;6.90;1.52;;;;;;;-146.25;95.36;52465.53;2080527;28;20872;-64
2024/03/18 03:30:41;;;;;;;5.35;1.35;;;;;;;-146.25;96.41;52477.69;2080613;28;20471;-65
2024/03/18 03:31:44;;;;;;;6.70;1.75;;;;;;;-146.25;95.71;52455.38;2072362;28;20078;-64
2024/03/18 03:32:45;;;;;;;7.85;1.88;;;;;;;-146.25;95.16;52526.34;2080370;28;20184;-64
2024/03/18 03:33:46;;;;;;;5.70;1.33;;;;;;;-146.25;95.67;52477.69;2080691;28;20200;-65
2024/03/18 03:34:47;;;;;;;6.32;1.90;;;;;;;-146.25;95.46;52502.03;2072203;28;20493;-64
2024/03/18 03:35:48;;;;;;;7.85;2.20;;;;;;;-146.25;95.59;52477.69;2073028;28;20046;-65
2024/03/18 03:36:49;;;;;;;7.78;1.67;;;;;;;-146.25;95.59;52500.00;2072603;28;20509;-65
2024/03/18 03:37:49;;;;;;;7.32;1.73;;;;;;;-146.25;94.97;52506.06;2072305;28;20915;-65
2024/03/18 03:38:50;;;;;;;6.13;1.88;;;;;;;-146.25;95.17;52487.81;2072497;28;20042;-65
2024/03/18 03:39:51;;;;;;;6.13;1.58;;;;;;;-146.25;95.92;52479.72;2072228;28;20046;-65
2024/03/18 03:40:52;;;;;;;7.38;1.88;;;;;;;-146.25;94.83;52497.97;2072621;28;20120;-64
2024/03/18 03:41:56;;;;;;;7.55;1.55;;;;;;;-146.25;94.99;52489.84;2072709;28;20085;-64
2024/03/18 03:42:56;;;;;;;7.50;2.13;;;;;;;-146.25;95.15;52445.25;2072795;28;20049;-65
2024/03/18 03:43:57;;;;;;;9.93;1.90;;;;;;;-146.25;95.59;52483.78;2072674;28;20054;-64
2024/03/18 03:44:58;;;;;;;5.63;1.60;;;;;;;-146.25;95.49;52459.44;2063796;28;20054;-65
2024/03/18 03:46:01;;;;;;;11.20;2.00;;;;;;;-146.25;95.46;52483.78;2064544;28;20039;-65
2024/03/18 03:47:01;;;;;;;7.78;1.90;;;;;;;-146.25;95.19;52497.97;2072857;28;20057;-64
2024/03/18 03:48:05;;;;;;;8.38;1.50;;;;;;;-146.25;95.59;52506.06;2064281;28;20045;-64
2024/03/18 03:49:06;;;;;;;9.07;1.52;;;;;;;-146.25;96.18;52445.25;2072956;28;20031;-65
2024/03/18 03:50:09;;;;;;;6.68;2.15;;;;;;;-146.25;95.78;52485.81;2072424;28;20065;-64
2024/03/18 03:51:10;;;;;;;8.55;2.05;;;;;;;-146.25;95.94;52510.13;2072159;28;20109;-65
2024/03/18 03:52:11;;;;;;;7.05;1.50;;;;;;;-146.25;95.21;52493.91;2072276;28;20164;-65
2024/03/18 03:53:12;;;;;;;5.32;1.52;;;;;;;-146.25;96.22;52497.97;2064349;28;20118;-64
2024/03/18 03:54:14;;;;;;;7.38;1.95;;;;;;;-146.25;96.79;52502.03;2064466;28;20035;-65
2024/03/18 03:55:15;;;;;;;9.02;2.03;;;;;;;-146.25;96.50;52455.38;2064143;28;20038;-65
2024/03/18 03:56:16;;;;;;;6.88;2.00;;;;;;;-146.25;97.27;52483.78;2056546;28;20047;-65
2024/03/18 03:57:16;;;;;;;9.82;1.90;;;;;;;-146.25;96.13;52467.56;2073041;28;20038;-64
2024/03/18 03:58:17;;;;;;;7.22;1.52;;;;;;;-146.25;96.92;52481.75;2080617;28;20045;-64
2024/03/18 03:59:20;;;;;;;7.30;1.40;;;;;;;-146.25;97.02;52459.44;2072395;28;20530;-65
2024/03/18 04:00:23;;;;;;;7.68;1.77;;;;;;;-146.25;96.69;52512.16;2072767;28;20046;-65
2024/03/18 04:01:24;;;;;;;7.05;2.03;;;;;;;-146.25;97.63;52465.53;2072520;28;20034;-65
2024/03/18 04:02:25;;;;;;;7.15;1.80;;;;;;;-146.25;98.07;52437.13;2072609;28;20038;-65
2024/03/18 04:03:25;;;;;;;9.15;2.10;;;;;;;-146.25;98.22;52493.91;2072459;28;20074;-66
2024/03/18 04:04:29;;;;;;;9.95;2.28;;;;;;;-146.25;98.09;52457.41;2072605;28;20066;-66
2024/03/18 04:05:30;;;;;;;8.80;2.08;;;;;;;-146.25;97.49;52502.03;2080393;28;20054;-65
2024/03/18 04:06:31;;;;;;;8.77;1.83;;;;;;;-146.25;98.04;52477.69;2079994;28;20638;-65
2024/03/18 04:07:32;;;;;;;8.10;1.50;;;;;;;-146.25;98.12;52485.81;2072148;28;20153;-65
2024/03/18 04:08:33;;;;;;;9.20;1.83;;;;;;;-146.25;97.48;52451.31;2072268;28;20047;-65
2024/03/18 04:09:33;;;;;;;8.50;1.92;;;;;;;-146.25;97.90;52485.81;2072385;28;20066;-65
2024/03/18 04:10:34;;;;;;;10.70;1.83;;;;;;;-146.25;97.99;52473.63;2072241;28;20043;-65
2024/03/18 04:11:35;;;;;;;10.15;1.67;;;;;;;-146.25;98.40;52469.56;2072274;28;20043;-65
2024/03/18 04:12:36;;;;;;;8.80;2.55;;;;;;;-146.25;97.86;52508.09;2072357;28;20042;-65
2024/03/18 04:13:37;;;;;;;8.85;1.95;;;;;;;-146.25;98.23;52473.63;2064321;28;20047;-65
2024/03/18 04:14:37;;;;;;;9.82;1.42;;;;;;;-146.25;98.12;52469.56;2080571;28;20046;-64
2024/03/18 04:15:39;;;;;;;7.55;1.95;;;;;;;-146.25;97.96;52497.97;2080545;28;20046;-64
2024/03/18 04:16:40;;;;;;;7.72;1.95;;;;;;;-146.25;97.50;52506.06;2071981;28;20043;-65
2024/03/18 04:17:41;;;;;;;8.23;1.90;;;;;;;-146.25;98.87;52514.19;2064322;28;20151;-64
2024/03/18 04:18:43;;;;;;;7.35;2.03;;;;;;;-146.25;99.04;52491.88;2072831;28;20050;-64
2024/03/18 04:19:44;;;;;;;13.57;2.50;;;;;;;-146.25;100.00;52512.16;2080517;28;20808;-64
2024/03/18 04:20:45;;;;;;;7.38;2.00;;;;;;;-146.25;100.00;52504.03;2071994;28;20043;-64
2024/03/18 04:21:46;;;;;;;5.43;1.63;;;;;;;-146.25;99.72;52493.91;2072419;28;20113;-67
2024/03/18 04:22:50;;;;;;;11.90;1.92;;;;;;;-146.25;100.00;52487.81;2072038;28;20043;-64
2024/03/18 04:23:53;;;;;;;7.60;1.85;;;;;;;-146.25;100.00;52522.28;2072162;28;20746;-65
2024/03/18 04:24:53;;;;;;;10.20;2.30;;;;;;;-146.25;100.00;52483.78;2056757;28;20043;-65
2024/03/18 04:25:54;;;;;;;9.75;1.90;;;;;;;-146.25;100.00;52481.75;2064398;28;20042;-65
2024/03/18 04:26:55;;;;;;;7.18;1.83;;;;;;;-146.25;100.00;52465.53;2080541;28;20046;-65
2024/03/18 04:27:59;;;;;;;5.32;1.73;;;;;;;-146.25;100.00;52487.81;2072445;28;20073;-65
2024/03/18 04:29:03;;;;;;;10.15;2.28;;;;;;;-146.25;100.00;52514.19;2072293;28;20054;-64
2024/03/18 04:30:05;;;;;;;8.57;2.20;;;;;;;-146.25;100.00;52508.09;2072203;28;20034;-65
2024/03/18 04:31:07;;;;;;;6.65;1.88;;;;;;;-146.25;100.00;52485.81;2064156;28;20042;-66
2024/03/18 04:32:09;;;;;;;6.72;1.70;;;;;;;-146.25;100.00;52465.53;2064562;28;20039;-64
2024/03/18 04:33:10;;;;;;;9.55;2.40;;;;;;;-146.25;100.00;52495.94;2072212;28;20046;-64
2024/03/18 04:34:10;;;;;;;8.35;2.30;;;;;;;-146.25;100.00;52467.56;2063819;28;20564;-65
2024/03/18 04:35:15;;;;;;;7.97;1.80;;;;;;;-146.25;100.00;52465.53;2064754;28;20063;-64
2024/03/18 04:36:16;;;;;;;9.82;1.95;;;;;;;-146.25;100.00;52445.25;2072804;28;20054;-64
2024/03/18 04:37:17;;;;;;;9.30;2.60;;;;;;;-146.25;100.00;52473.63;2071670;28;20054;-65
2024/03/18 04:38:17;;;;;;;6.72;1.92;;;;;;;-146.25;100.00;52459.44;2072369;28;20043;-64
2024/03/18 04:39:18;;;;;;;9.18;2.28;;;;;;;-146.25;100.00;52463.50;2072200;28;20556;-64
2024/03/18 04:40:21;;;;;;;8.45;1.80;;;;;;;-146.25;100.00;52495.94;2072091;28;20101;-64
2024/03/18 04:41:21;;;;;;;8.32;1.92;;;;;;;-146.25;100.00;52473.63;2073377;28;20099;-64
2024/03/18 04:42:22;;;;;;;7.47;1.83;;;;;;;-146.25;100.00;52467.56;2072358;28;20382;-64
2024/03/18 04:43:23;;;;;;;6.95;2.40;;;;;;;-146.25;100.00;52495.94;2072120;28;20042;-64